Armorel, Arkansas
Current Conditions -  °F | °C
As of 2:53 PM on Tuesday 27 Jan 2015 (Local Time) from KHKA Reporting Station
Few Clouds Few Clouds  
Wind Chill: 54°   Ceiling: Unl
Heat Index: 54°   Visibility: 10mi
Dew Point: 38°   Wind: 10mph
Humidity: 55%   Direction: 350°N
Pressure: 30.15"   Gusts: NA
Location:  35.92°N, 89.8°W
Report Text: KHKA 272053Z AUTO 35009KT 10SM FEW031 12/03 A3015 RMK AO2 SLP211 T01220033 55003
Loading
Personal Weather Stations






























Interactive Weather Map New forecast layout! Learn more

10-Day Weather Forecast

Advertisements
Track Severe Weather on mobile